Time;durP1;ratioP1;P1;durP2;ratioP2;P2;SDS_P1;SDS_P2;PMS_P1;PMS_P2;Temp;Humidity;BMP_temperature;BMP_pressure;BME280_temperature;BME280_humidity;BME280_pressure;Samples;Min_cycle;Max_cycle;Signal;HPM_P1;HPM_P2
2022/09/21 00:00:29;;;;;;;3.08;0.65;;;11.20;96.70;;;;;;5055836;28;20039;-66
2022/09/21 00:02:56;;;;;;;0.75;0.50;;;11.20;96.40;;;;;;5055830;28;20037;-66
2022/09/21 00:05:22;;;;;;;1.33;0.68;;;11.30;96.50;;;;;;5054473;28;20123;-66
2022/09/21 00:07:48;;;;;;;1.52;0.40;;;11.20;96.40;;;;;;5055623;28;20523;-65
2022/09/21 00:10:15;;;;;;;3.90;0.40;;;11.10;96.40;;;;;;5055376;28;20052;-65
2022/09/21 00:12:41;;;;;;;1.70;0.75;;;11.10;96.70;;;;;;5055375;28;20550;-66
2022/09/21 00:15:09;;;;;;;0.77;0.50;;;11.00;96.90;;;;;;5055410;28;20044;-65
2022/09/21 00:17:36;;;;;;;1.73;0.68;;;11.10;97.10;;;;;;5055453;28;20045;-66
2022/09/21 00:20:05;;;;;;;0.43;0.30;;;11.00;96.90;;;;;;5055508;28;20159;-66
2022/09/21 00:22:34;;;;;;;0.57;0.30;;;11.00;97.10;;;;;;5055492;28;20456;-65
2022/09/21 00:25:02;;;;;;;1.58;0.60;;;11.00;97.30;;;;;;5055380;28;20552;-66
2022/09/21 00:27:28;;;;;;;0.73;0.45;;;11.00;96.90;;;;;;5055230;28;20040;-65
2022/09/21 00:30:01;;;;;;;2.20;0.65;;;11.00;96.90;;;;;;5055083;28;20040;-66
2022/09/21 00:32:27;;;;;;;2.05;0.50;;;10.90;97.00;;;;;;5055090;28;20434;-66
2022/09/21 00:34:53;;;;;;;1.40;0.63;;;11.00;97.00;;;;;;5055207;28;20048;-66
2022/09/21 00:37:19;;;;;;;2.45;0.60;;;11.00;97.10;;;;;;5055056;28;20089;-66
2022/09/21 00:39:45;;;;;;;1.85;0.50;;;11.00;97.50;;;;;;5054815;28;20036;-65
2022/09/21 00:42:20;;;;;;;0.88;0.50;;;11.00;97.80;;;;;;5054799;28;20043;-66
2022/09/21 00:44:46;;;;;;;0.55;0.30;;;10.80;97.30;;;;;;5054931;28;20047;-66
2022/09/21 00:47:15;;;;;;;0.90;0.50;;;10.90;97.50;;;;;;5054725;28;20044;-66
2022/09/21 00:49:50;;;;;;;1.25;0.40;;;10.90;97.40;;;;;;5054590;28;20424;-65
2022/09/21 00:52:18;;;;;;;0.60;0.50;;;10.80;97.40;;;;;;5054654;28;20508;-66
2022/09/21 00:55:02;;;;;;;1.08;0.60;;;10.90;97.60;;;;;;5054545;28;20131;-66
2022/09/21 00:57:32;;;;;;;0.52;0.43;;;10.90;97.60;;;;;;5053419;28;20555;-65
2022/09/21 01:00:03;;;;;;;0.88;0.45;;;10.80;97.50;;;;;;5054678;28;20072;-66
2022/09/21 01:02:28;;;;;;;2.35;0.85;;;10.80;97.70;;;;;;5054703;28;20045;-66
2022/09/21 01:04:55;;;;;;;2.42;0.93;;;10.80;97.60;;;;;;5054642;28;20498;-66
2022/09/21 01:07:29;;;;;;;2.92;1.10;;;10.90;97.50;;;;;;5053265;28;20045;-66
2022/09/21 01:09:59;;;;;;;6.53;0.80;;;10.90;97.30;;;;;;5054687;28;20051;-66
2022/09/21 01:12:25;;;;;;;3.03;0.55;;;10.90;97.30;;;;;;5053956;28;20075;-65
2022/09/21 01:15:09;;;;;;;1.77;0.68;;;10.80;97.40;;;;;;5054325;28;20041;-65
2022/09/21 01:17:39;;;;;;;0.98;0.70;;;10.90;98.00;;;;;;5053083;28;20480;-66
2022/09/21 01:20:24;;;;;;;1.90;0.60;;;10.70;98.50;;;;;;5054419;28;20404;-66
2022/09/21 01:23:11;;;;;;;3.97;0.90;;;10.80;97.90;;;;;;5054377;28;20040;-66
2022/09/21 01:26:11;;;;;;;5.53;0.60;;;10.80;98.20;;;;;;5054198;28;20033;-65
2022/09/21 01:29:12;;;;;;;2.85;0.43;;;10.80;97.90;;;;;;5053571;28;20048;-65
2022/09/21 01:31:53;;;;;;;1.10;0.52;;;10.90;97.40;;;;;;5054187;28;20033;-65
2022/09/21 01:34:32;;;;;;;6.15;0.85;;;10.80;97.80;;;;;;5054148;28;20029;-65
2022/09/21 01:37:04;;;;;;;2.05;0.30;;;10.70;97.90;;;;;;5054117;28;20047;-66
2022/09/21 01:39:36;;;;;;;1.77;0.60;;;10.60;97.80;;;;;;5053907;28;20044;-66
2022/09/21 01:42:06;;;;;;;2.08;0.60;;;10.70;97.90;;;;;;5053866;28;20558;-66
2022/09/21 01:44:34;;;;;;;8.13;0.70;;;10.70;97.60;;;;;;5054059;28;20056;-66
2022/09/21 01:47:02;;;;;;;2.15;0.40;;;10.70;97.70;;;;;;5054113;28;20033;-66
2022/09/21 01:49:52;;;;;;;0.65;0.40;;;10.70;97.50;;;;;;5053999;28;20052;-66
2022/09/21 01:52:49;;;;;;;3.40;0.60;;;10.70;98.30;;;;;;5054063;28;20492;-65
2022/09/21 01:55:21;;;;;;;1.90;0.52;;;10.60;97.90;;;;;;5053818;28;20033;-66
2022/09/21 01:58:04;;;;;;;1.25;0.60;;;10.60;97.60;;;;;;5053888;28;20086;-65
2022/09/21 02:00:33;;;;;;;3.45;0.60;;;10.60;97.90;;;;;;5052502;28;20045;-65
2022/09/21 02:03:37;;;;;;;1.40;0.60;;;10.60;98.00;;;;;;5053762;28;20029;-65
2022/09/21 02:06:04;;;;;;;1.48;0.70;;;10.50;98.00;;;;;;5030702;28;20048;-66
2022/09/21 02:08:31;;;;;;;1.73;0.50;;;10.40;98.20;;;;;;5054785;28;20105;-65
2022/09/21 02:11:03;;;;;;;2.05;0.60;;;10.50;97.20;;;;;;5058000;28;20403;-66
2022/09/21 02:13:33;;;;;;;2.05;0.60;;;10.60;97.30;;;;;;5057929;28;20072;-66
2022/09/21 02:16:02;;;;;;;1.08;0.73;;;10.60;96.10;;;;;;5057890;28;20045;-66
2022/09/21 02:18:56;;;;;;;1.40;0.68;;;11.00;94.90;;;;;;5057740;28;20037;-65
2022/09/21 02:21:45;;;;;;;1.92;0.50;;;11.10;95.00;;;;;;5057600;28;20037;-66
2022/09/21 02:24:46;;;;;;;0.60;0.40;;;11.00;95.30;;;;;;5057560;28;20049;-65
2022/09/21 02:27:28;;;;;;;1.67;0.68;;;10.90;95.70;;;;;;5057367;28;20452;-66
2022/09/21 02:30:05;;;;;;;1.20;0.63;;;11.00;94.50;;;;;;5057531;28;20041;-65
2022/09/21 02:32:36;;;;;;;0.77;0.50;;;11.00;94.60;;;;;;5057432;28;20049;-65
2022/09/21 02:35:23;;;;;;;1.27;0.60;;;11.00;94.10;;;;;;5057197;28;20076;-65
2022/09/21 02:38:09;;;;;;;1.58;0.65;;;11.10;93.90;;;;;;5057079;28;20144;-65
2022/09/21 02:40:53;;;;;;;1.10;0.60;;;11.10;94.00;;;;;;5057316;28;20036;-65
2022/09/21 02:43:39;;;;;;;0.65;0.40;;;11.00;93.80;;;;;;5057212;28;20357;-65
2022/09/21 02:46:24;;;;;;;3.05;1.17;;;11.20;93.30;;;;;;5057014;28;20443;-65
2022/09/21 02:48:55;;;;;;;3.03;0.60;;;11.30;93.50;;;;;;5057020;28;20102;-65
2022/09/21 02:51:33;;;;;;;1.85;0.90;;;11.20;93.60;;;;;;5057114;28;20052;-65
2022/09/21 02:54:03;;;;;;;2.63;0.60;;;11.20;93.80;;;;;;5057126;28;20045;-66
2022/09/21 02:56:30;;;;;;;2.85;0.40;;;11.20;93.90;;;;;;5057031;28;20041;-65
2022/09/21 02:59:00;;;;;;;1.85;0.40;;;11.20;93.70;;;;;;5057028;28;20531;-65
2022/09/21 03:01:27;;;;;;;1.30;0.63;;;11.10;94.20;;;;;;5057024;28;20045;-65
2022/09/21 03:03:53;;;;;;;1.58;0.65;;;11.10;94.10;;;;;;5056758;28;20043;-65
2022/09/21 03:06:19;;;;;;;0.95;0.52;;;11.20;94.10;;;;;;5054716;28;20040;-65
2022/09/21 03:08:45;;;;;;;0.65;0.60;;;11.20;93.70;;;;;;5054148;28;20122;-65
2022/09/21 03:11:15;;;;;;;2.47;0.52;;;11.20;93.70;;;;;;5056245;28;20041;-65
2022/09/21 03:13:41;;;;;;;1.30;0.70;;;11.20;93.80;;;;;;5056399;28;20048;-66
2022/09/21 03:16:07;;;;;;;0.98;0.70;;;11.10;93.90;;;;;;5055464;28;20392;-65
2022/09/21 03:18:33;;;;;;;3.05;0.70;;;11.20;93.90;;;;;;5056827;28;20119;-66
2022/09/21 03:20:59;;;;;;;1.08;0.80;;;11.20;94.00;;;;;;5051767;28;20044;-65
2022/09/21 03:23:25;;;;;;;2.55;1.17;;;11.20;93.90;;;;;;5036489;28;20408;-65
2022/09/21 03:25:51;;;;;;;3.53;0.50;;;11.20;93.60;;;;;;5049999;28;20045;-65
2022/09/21 03:28:18;;;;;;;3.10;0.73;;;11.30;93.30;;;;;;5034678;28;20048;-65
2022/09/21 03:30:44;;;;;;;1.63;0.60;;;11.30;93.40;;;;;;5036439;28;20041;-65
2022/09/21 03:33:11;;;;;;;3.28;0.60;;;11.30;93.30;;;;;;5036442;28;20047;-66
2022/09/21 03:35:38;;;;;;;0.80;0.60;;;11.30;93.30;;;;;;5036303;28;20049;-66
2022/09/21 03:38:04;;;;;;;1.90;0.70;;;11.20;93.50;;;;;;5036224;28;20095;-65
2022/09/21 03:40:31;;;;;;;1.00;0.73;;;11.10;93.80;;;;;;5036319;28;20460;-66
2022/09/21 03:42:57;;;;;;;1.70;0.60;;;11.20;93.30;;;;;;5036217;28;20051;-66
2022/09/21 03:45:26;;;;;;;1.40;0.63;;;11.30;93.50;;;;;;5035019;28;20389;-65
2022/09/21 03:47:56;;;;;;;1.48;0.45;;;11.20;93.50;;;;;;5036025;28;20441;-66
2022/09/21 03:50:23;;;;;;;2.28;0.70;;;11.10;93.60;;;;;;5036179;28;20565;-66
2022/09/21 03:52:49;;;;;;;2.97;0.80;;;11.10;93.70;;;;;;5036071;28;20037;-65
2022/09/21 03:55:14;;;;;;;1.40;0.70;;;11.10;93.50;;;;;;5036088;28;20123;-65
2022/09/21 03:57:40;;;;;;;1.25;0.55;;;11.00;93.70;;;;;;5035980;28;20041;-66
2022/09/21 04:00:09;;;;;;;2.35;0.70;;;10.90;93.90;;;;;;5036320;28;20049;-65
2022/09/21 04:02:38;;;;;;;2.50;0.85;;;11.00;93.90;;;;;;5035731;28;20410;-65
2022/09/21 04:05:05;;;;;;;2.28;0.75;;;10.90;93.70;;;;;;5035850;28;20064;-65
2022/09/21 04:07:34;;;;;;;1.25;0.50;;;10.90;94.10;;;;;;5034788;28;20033;-65
2022/09/21 04:10:01;;;;;;;1.20;0.63;;;10.90;94.10;;;;;;5036061;28;20072;-65
2022/09/21 04:12:27;;;;;;;1.90;0.60;;;10.70;94.40;;;;;;5035827;28;20045;-65
2022/09/21 04:14:53;;;;;;;1.02;0.57;;;10.90;93.90;;;;;;5035461;28;20049;-65
2022/09/21 04:17:19;;;;;;;1.42;0.50;;;10.90;93.90;;;;;;5034213;28;20057;-65
2022/09/21 04:19:45;;;;;;;1.08;0.40;;;10.90;94.20;;;;;;5035380;28;20508;-65
2022/09/21 04:22:13;;;;;;;1.17;0.57;;;10.80;94.30;;;;;;5035526;28;20045;-65
2022/09/21 04:24:39;;;;;;;1.52;0.50;;;10.70;94.70;;;;;;5035500;28;20033;-66
2022/09/21 04:27:08;;;;;;;1.15;0.40;;;10.50;94.90;;;;;;5035673;28;20041;-66
2022/09/21 04:29:34;;;;;;;0.93;0.55;;;10.50;95.30;;;;;;5035179;28;20049;-65
2022/09/21 04:32:01;;;;;;;1.40;0.65;;;10.40;95.80;;;;;;5044232;28;20043;-65
2022/09/21 04:34:26;;;;;;;1.00;0.60;;;10.20;95.90;;;;;;5055058;28;20091;-65
2022/09/21 04:36:55;;;;;;;2.00;0.45;;;10.20;95.90;;;;;;5054973;28;20036;-65
2022/09/21 04:39:21;;;;;;;6.97;0.60;;;10.40;95.30;;;;;;5054988;28;20037;-66
2022/09/21 04:41:47;;;;;;;2.75;0.45;;;10.40;95.60;;;;;;5055101;28;20044;-66
2022/09/21 04:44:13;;;;;;;1.92;0.60;;;10.30;95.40;;;;;;5054464;28;20377;-66
2022/09/21 04:46:39;;;;;;;4.43;0.80;;;10.40;95.40;;;;;;5054763;28;20029;-65
2022/09/21 04:49:04;;;;;;;1.20;0.52;;;10.30;95.80;;;;;;5054480;28;20052;-65
2022/09/21 04:51:30;;;;;;;0.75;0.60;;;10.30;95.80;;;;;;5054663;28;20500;-65
2022/09/21 04:53:56;;;;;;;1.25;0.70;;;10.20;96.40;;;;;;5054665;28;20090;-65
2022/09/21 04:56:21;;;;;;;1.70;0.70;;;10.20;96.20;;;;;;5053603;28;20066;-65
2022/09/21 04:58:47;;;;;;;1.50;0.70;;;10.20;96.00;;;;;;5054498;28;20066;-65
2022/09/21 05:01:13;;;;;;;2.35;1.05;;;10.20;95.80;;;;;;5054348;28;20501;-66
2022/09/21 05:03:39;;;;;;;1.23;0.52;;;10.00;96.30;;;;;;5054042;28;20051;-66
2022/09/21 05:06:05;;;;;;;1.88;0.90;;;9.80;96.70;;;;;;5054333;28;20045;-65
2022/09/21 05:11:17;;;;;;;1.60;0.70;;;9.80;97.00;;;;;;5052507;28;20499;-65
2022/09/21 05:13:44;;;;;;;3.13;0.57;;;9.80;96.90;;;;;;5052629;28;20040;-66
2022/09/21 05:16:10;;;;;;;6.65;0.75;;;9.80;97.20;;;;;;5052299;28;20041;-65
2022/09/21 05:18:36;;;;;;;1.00;0.80;;;9.70;97.40;;;;;;5052424;28;20102;-65
2022/09/21 05:21:03;;;;;;;1.58;0.60;;;9.70;97.50;;;;;;5052401;28;20048;-65
2022/09/21 05:23:30;;;;;;;1.25;0.60;;;9.70;97.10;;;;;;5053436;28;20080;-65
2022/09/21 05:25:57;;;;;;;1.38;0.63;;;9.80;96.90;;;;;;5053852;28;20527;-65
2022/09/21 05:28:24;;;;;;;1.00;0.50;;;9.70;97.00;;;;;;5053803;28;20056;-65
2022/09/21 05:31:06;;;;;;;1.27;0.73;;;9.70;97.70;;;;;;5053961;28;20044;-65
2022/09/21 05:33:34;;;;;;;1.17;0.60;;;9.80;97.40;;;;;;5050584;28;20480;-65
2022/09/21 05:36:41;;;;;;;4.05;0.93;;;9.70;97.40;;;;;;5047001;28;20131;-65
2022/09/21 05:39:07;;;;;;;2.50;0.70;;;9.70;97.80;;;;;;5049561;28;20099;-65
2022/09/21 05:41:33;;;;;;;1.83;0.80;;;9.70;97.90;;;;;;5052596;28;20805;-65
2022/09/21 05:43:59;;;;;;;1.58;0.52;;;9.80;97.80;;;;;;5051887;28;20069;-65
2022/09/21 05:46:38;;;;;;;2.45;0.60;;;9.70;98.10;;;;;;5052502;28;20071;-65
2022/09/21 05:49:20;;;;;;;2.95;0.73;;;9.50;98.00;;;;;;5050121;28;20504;-65
2022/09/21 05:52:04;;;;;;;4.72;0.70;;;9.50;98.60;;;;;;5053475;28;20129;-65
2022/09/21 05:54:51;;;;;;;0.70;0.50;;;9.40;98.80;;;;;;5053336;28;20037;-65
2022/09/21 05:57:31;;;;;;;3.38;0.70;;;9.30;99.30;;;;;;5053779;28;20044;-65
2022/09/21 06:00:10;;;;;;;1.75;0.90;;;9.40;99.60;;;;;;5053787;28;20068;-65
2022/09/21 06:03:12;;;;;;;3.90;0.70;;;9.50;99.70;;;;;;5053842;28;20036;-65
2022/09/21 06:05:38;;;;;;;2.03;0.70;;;9.60;99.30;;;;;;4985721;28;20050;-65
2022/09/21 06:08:04;;;;;;;1.35;0.50;;;9.70;98.50;;;;;;5025215;28;20065;-65
2022/09/21 06:10:33;;;;;;;2.22;0.90;;;9.70;98.90;;;;;;5033819;28;20072;-65
2022/09/21 06:13:00;;;;;;;1.52;0.82;;;9.70;99.20;;;;;;5032512;28;20462;-65
2022/09/21 06:15:25;;;;;;;1.05;0.60;;;9.70;99.00;;;;;;5033501;28;20123;-66
2022/09/21 06:17:51;;;;;;;2.55;0.80;;;9.90;99.40;;;;;;5046347;28;20063;-66
2022/09/21 06:20:17;;;;;;;0.98;0.60;;;10.10;99.00;;;;;;5050963;28;20037;-65
2022/09/21 06:22:43;;;;;;;2.47;0.93;;;10.50;98.40;;;;;;5049384;28;20044;-66
2022/09/21 06:25:08;;;;;;;3.63;0.43;;;10.70;98.60;;;;;;5049547;28;20630;-66
2022/09/21 06:27:34;;;;;;;2.30;0.70;;;11.00;98.20;;;;;;5049609;28;20120;-66
2022/09/21 06:30:00;;;;;;;1.48;0.77;;;11.20;98.50;;;;;;5049109;28;20407;-66
2022/09/21 06:32:26;;;;;;;6.05;1.63;;;11.60;97.80;;;;;;5049459;28;20396;-66
2022/09/21 06:34:52;;;;;;;4.25;0.80;;;11.80;97.10;;;;;;5050181;28;20448;-66
2022/09/21 06:37:17;;;;;;;4.28;0.80;;;11.80;97.80;;;;;;5050444;28;20048;-66
2022/09/21 06:39:43;;;;;;;1.17;0.70;;;11.90;97.30;;;;;;5051011;28;20443;-66
2022/09/21 06:42:09;;;;;;;1.75;0.77;;;12.00;98.00;;;;;;5051031;28;20033;-66
2022/09/21 06:44:35;;;;;;;4.93;1.10;;;12.20;97.40;;;;;;5051517;28;20541;-66
2022/09/21 06:47:00;;;;;;;6.45;0.80;;;12.30;97.50;;;;;;5052027;28;20037;-66
2022/09/21 06:49:27;;;;;;;1.92;1.05;;;12.40;96.80;;;;;;5053499;28;20037;-66
2022/09/21 06:51:57;;;;;;;1.90;0.75;;;12.60;97.40;;;;;;5053245;28;20554;-66
2022/09/21 06:54:23;;;;;;;2.20;0.80;;;13.00;97.10;;;;;;5053365;28;20045;-66
2022/09/21 06:56:49;;;;;;;3.25;0.63;;;13.20;96.70;;;;;;5056436;28;20040;-66
2022/09/21 06:59:14;;;;;;;1.90;0.70;;;13.20;96.30;;;;;;5057138;28;20093;-66
2022/09/21 07:01:40;;;;;;;1.88;0.80;;;13.50;96.00;;;;;;5055392;28;20555;-66
2022/09/21 07:04:08;;;;;;;3.45;0.80;;;13.60;95.80;;;;;;5055174;28;20039;-66
2022/09/21 07:06:34;;;;;;;1.95;0.70;;;13.50;95.80;;;;;;5054929;28;20052;-66
2022/09/21 07:09:01;;;;;;;1.75;0.70;;;13.80;95.40;;;;;;5054908;28;20706;-66
2022/09/21 07:11:27;;;;;;;1.85;0.77;;;14.20;95.40;;;;;;5054707;28;21070;-65
2022/09/21 07:13:53;;;;;;;1.83;0.45;;;13.80;95.00;;;;;;5054668;28;20041;-66
2022/09/21 07:16:20;;;;;;;2.35;0.80;;;13.30;95.10;;;;;;5055632;28;20051;-66
2022/09/21 07:18:46;;;;;;;2.63;0.68;;;13.20;95.10;;;;;;5056503;28;20401;-65
2022/09/21 07:21:13;;;;;;;2.03;0.88;;;13.50;95.00;;;;;;5056672;28;20045;-65
2022/09/21 07:23:39;;;;;;;2.10;0.60;;;14.40;94.40;;;;;;5056829;28;20111;-66
2022/09/21 07:26:12;;;;;;;1.58;0.30;;;14.70;93.90;;;;;;5054463;28;20124;-65
2022/09/21 07:28:38;;;;;;;2.25;0.80;;;13.70;94.50;;;;;;5045613;28;20053;-65
2022/09/21 07:31:07;;;;;;;2.55;0.90;;;14.70;94.50;;;;;;5034536;28;20037;-66
2022/09/21 07:33:34;;;;;;;2.00;0.75;;;15.00;93.10;;;;;;5034634;28;20041;-66
2022/09/21 07:36:02;;;;;;;2.17;0.68;;;14.30;93.70;;;;;;5035139;28;20065;-67
2022/09/21 07:38:28;;;;;;;2.72;0.80;;;14.90;93.40;;;;;;5035093;28;20088;-65
2022/09/21 07:40:54;;;;;;;2.15;0.85;;;14.90;93.90;;;;;;5036128;28;20033;-66
2022/09/21 07:43:20;;;;;;;1.50;0.60;;;;;;;;;;5036128;28;20034;-66
2022/09/21 07:45:56;;;;;;;0.98;0.60;;;15.50;94.70;;;;;;5036251;28;20072;-66
2022/09/21 07:48:22;;;;;;;2.35;0.77;;;15.40;94.60;;;;;;5036057;28;20049;-66
2022/09/21 07:50:48;;;;;;;2.13;0.90;;;15.80;94.40;;;;;;5036221;28;20538;-66
2022/09/21 07:53:17;;;;;;;2.28;1.02;;;15.70;93.70;;;;;;5036455;28;20041;-66
2022/09/21 07:55:43;;;;;;;1.90;0.60;;;16.10;93.40;;;;;;5048249;28;20037;-66
2022/09/21 08:00:54;;;;;;;1.10;0.60;;;15.00;92.90;;;;;;5054668;28;20051;-66
2022/09/21 08:03:20;;;;;;;0.88;0.55;;;15.50;93.90;;;;;;5054992;28;20040;-66
2022/09/21 08:05:45;;;;;;;4.68;1.75;;;16.10;94.80;;;;;;5051677;28;20175;-66
2022/09/21 08:08:11;;;;;;;1.33;0.50;;;16.30;93.40;;;;;;5054595;28;20146;-66
2022/09/21 08:10:38;;;;;;;2.67;1.00;;;16.30;93.00;;;;;;5053944;28;20037;-65
2022/09/21 08:13:04;;;;;;;2.13;0.57;;;16.40;91.90;;;;;;5053330;28;20091;-66
2022/09/21 08:15:30;;;;;;;4.93;0.80;;;16.50;92.40;;;;;;5054031;28;20036;-66
2022/09/21 08:17:57;;;;;;;2.13;0.80;;;16.60;93.00;;;;;;5052174;28;20039;-66
2022/09/21 08:20:23;;;;;;;1.75;0.70;;;16.80;93.00;;;;;;5053475;28;20052;-66
2022/09/21 08:22:49;;;;;;;2.33;0.93;;;17.00;91.80;;;;;;5053002;28;20033;-66
2022/09/21 08:25:15;;;;;;;1.85;0.95;;;16.30;92.10;;;;;;5053175;28;20063;-66
2022/09/21 08:27:41;;;;;;;2.28;0.93;;;16.60;92.10;;;;;;5052765;28;20080;-66
2022/09/21 08:30:07;;;;;;;1.45;0.73;;;16.50;92.30;;;;;;5052997;28;20575;-66
2022/09/21 08:32:33;;;;;;;3.03;1.05;;;16.90;91.70;;;;;;5052855;28;20037;-66
2022/09/21 08:34:59;;;;;;;2.08;1.00;;;16.10;92.50;;;;;;5052685;28;20171;-66
2022/09/21 08:37:27;;;;;;;1.83;0.90;;;16.60;92.20;;;;;;5066498;28;20148;-66
2022/09/21 08:39:52;;;;;;;3.67;0.90;;;16.10;92.40;;;;;;5052067;28;20037;-66
2022/09/21 08:42:18;;;;;;;2.38;0.70;;;15.70;93.00;;;;;;5050055;28;20139;-66
2022/09/21 08:45:01;;;;;;;1.88;1.08;;;15.20;92.70;;;;;;5049862;28;20029;-66
2022/09/21 08:47:54;;;;;;;6.53;0.93;;;16.40;92.60;;;;;;5053546;28;20052;-66
2022/09/21 08:50:45;;;;;;;3.92;0.90;;;16.20;92.00;;;;;;5052665;28;20048;-66
2022/09/21 08:53:14;;;;;;;;;;;16.60;92.00;;;;;;5055189;28;20045;-66
2022/09/21 08:55:40;;;;;;;2.05;0.73;;;16.70;91.90;;;;;;5054973;28;20348;-66
2022/09/21 08:58:27;;;;;;;2.30;0.80;;;16.60;91.70;;;;;;5054863;28;20036;-66
2022/09/21 09:01:17;;;;;;;4.70;0.88;;;16.00;91.40;;;;;;5051436;28;20430;-66
2022/09/21 09:04:21;;;;;;;2.42;0.88;;;16.20;91.90;;;;;;5052938;28;20119;-66
2022/09/21 09:07:13;;;;;;;1.33;0.68;;;16.30;91.80;;;;;;5030492;28;20160;-66
2022/09/21 09:09:59;;;;;;;2.25;0.77;;;16.90;91.50;;;;;;5039704;28;20087;-66
2022/09/21 09:12:33;;;;;;;2.50;0.80;;;16.70;91.50;;;;;;5053771;28;20036;-66
2022/09/21 09:15:13;;;;;;;2.20;0.88;;;16.20;91.20;;;;;;5047718;28;20076;-66
2022/09/21 09:18:08;;;;;;;1.80;0.70;;;16.40;91.80;;;;;;5051580;28;20041;-66
2022/09/21 09:20:45;;;;;;;3.85;1.05;;;16.50;90.30;;;;;;5021571;28;20045;-66
2022/09/21 09:23:25;;;;;;;1.67;0.80;;;16.50;90.50;;;;;;5051190;28;20122;-66
2022/09/21 09:25:57;;;;;;;3.45;0.95;;;16.10;90.90;;;;;;5051440;28;20072;-66
2022/09/21 09:28:42;;;;;;;3.08;0.80;;;15.70;90.90;;;;;;5051565;28;20040;-67
2022/09/21 09:31:34;;;;;;;0.63;0.60;;;16.10;91.50;;;;;;5050457;28;20096;-67
2022/09/21 09:34:16;;;;;;;1.98;0.80;;;15.70;90.30;;;;;;5049935;28;20175;-67
2022/09/21 09:36:49;;;;;;;2.67;1.02;;;15.70;90.30;;;;;;5048081;28;20049;-68
2022/09/21 09:39:15;;;;;;;1.83;0.90;;;16.00;91.30;;;;;;5050289;28;20078;-66
2022/09/21 09:42:00;;;;;;;5.78;1.25;;;16.10;90.90;;;;;;5052129;28;20032;-66
2022/09/21 09:44:55;;;;;;;2.03;0.73;;;16.20;90.80;;;;;;5052124;28;20115;-66
2022/09/21 09:47:44;;;;;;;0.95;0.60;;;16.20;90.00;;;;;;5064429;28;20102;-66
2022/09/21 09:50:20;;;;;;;1.08;0.80;;;16.20;90.40;;;;;;5051588;28;20439;-67
2022/09/21 09:52:53;;;;;;;5.00;1.20;;;16.00;90.50;;;;;;5051270;28;20124;-67
2022/09/21 09:55:34;;;;;;;1.45;0.70;;;15.90;91.10;;;;;;5051361;28;20536;-63
2022/09/21 09:58:01;;;;;;;6.13;1.05;;;16.00;90.90;;;;;;5050787;28;20060;-68
2022/09/21 10:00:26;;;;;;;4.97;0.80;;;16.50;90.60;;;;;;5051455;28;20110;-66
2022/09/21 10:02:54;;;;;;;3.35;0.95;;;16.20;90.50;;;;;;5050322;28;20483;-67
2022/09/21 10:05:22;;;;;;;2.45;0.57;;;16.40;91.10;;;;;;5050135;28;20120;-67
2022/09/21 10:07:49;;;;;;;3.08;0.80;;;16.30;91.00;;;;;;5051598;28;20037;-67
2022/09/21 10:10:36;;;;;;;1.48;0.63;;;16.20;91.10;;;;;;5052091;28;20055;-65
2022/09/21 10:13:10;;;;;;;0.57;0.55;;;16.20;91.00;;;;;;5051644;28;20044;-66
2022/09/21 10:15:43;;;;;;;0.82;0.68;;;16.40;91.00;;;;;;5051651;28;20439;-67
2022/09/21 10:18:38;;;;;;;1.17;0.80;;;16.40;90.90;;;;;;5051043;28;20041;-66
2022/09/21 10:21:08;;;;;;;2.08;0.70;;;16.50;90.70;;;;;;5050225;28;20069;-67
2022/09/21 10:23:35;;;;;;;1.55;0.60;;;16.10;88.60;;;;;;5051246;28;20496;-66
2022/09/21 10:26:11;;;;;;;1.60;0.70;;;16.40;90.40;;;;;;5050851;28;20029;-66
2022/09/21 10:29:13;;;;;;;1.48;0.90;;;16.30;90.00;;;;;;5050891;28;20049;-66
2022/09/21 10:32:00;;;;;;;4.53;1.05;;;16.30;90.10;;;;;;5053861;28;20095;-66
2022/09/21 10:34:29;;;;;;;2.67;0.70;;;16.50;90.40;;;;;;5056707;28;20055;-68
2022/09/21 10:36:59;;;;;;;3.13;0.95;;;16.60;89.10;;;;;;5054342;28;20034;-66
2022/09/21 10:39:32;;;;;;;1.00;0.60;;;16.90;87.80;;;;;;5056353;28;20045;-66
2022/09/21 10:42:10;;;;;;;2.83;1.00;;;17.50;89.00;;;;;;5055002;28;20043;-66
2022/09/21 10:44:46;;;;;;;1.20;0.63;;;17.50;87.60;;;;;;5055122;28;20067;-67
2022/09/21 10:47:33;;;;;;;2.25;0.77;;;17.20;87.50;;;;;;5053179;28;20037;-68
2022/09/21 10:50:02;;;;;;;3.75;1.20;;;17.00;88.10;;;;;;5054446;28;20041;-66
2022/09/21 10:52:40;;;;;;;1.70;0.70;;;17.10;87.50;;;;;;5053255;28;20086;-68
2022/09/21 10:55:14;;;;;;;1.10;0.50;;;16.90;86.10;;;;;;5043253;28;20095;-67
2022/09/21 10:57:41;;;;;;;0.93;0.50;;;17.00;88.10;;;;;;5034916;28;20041;-69
2022/09/21 11:00:34;;;;;;;3.50;0.77;;;17.20;88.80;;;;;;5046791;28;20036;-69
2022/09/21 11:03:05;;;;;;;0.85;0.73;;;17.30;87.50;;;;;;5054253;28;20040;-70
2022/09/21 11:05:41;;;;;;;1.75;0.52;;;17.30;85.70;;;;;;5054360;28;20098;-68
2022/09/21 11:08:18;;;;;;;1.48;0.77;;;17.20;86.20;;;;;;5054397;28;20119;-68
2022/09/21 11:11:09;;;;;;;1.67;0.85;;;17.10;84.50;;;;;;5054737;28;20045;-68
2022/09/21 11:13:45;;;;;;;0.73;0.55;;;16.80;85.10;;;;;;5055586;28;20037;-68
2022/09/21 11:16:36;;;;;;;1.77;0.68;;;17.20;83.60;;;;;;5034825;28;20072;-68
2022/09/21 11:19:26;;;;;;;1.40;0.60;;;17.40;85.30;;;;;;5034854;28;20045;-69
2022/09/21 11:22:10;;;;;;;5.57;0.98;;;17.30;86.40;;;;;;5053609;28;20362;-68
2022/09/21 11:24:50;;;;;;;1.13;0.50;;;17.40;84.50;;;;;;5040784;28;20393;-69
2022/09/21 11:27:19;;;;;;;1.35;0.63;;;17.30;83.70;;;;;;5054045;28;20056;-69
2022/09/21 11:29:54;;;;;;;1.45;0.60;;;17.10;82.90;;;;;;5053741;28;20075;-68
2022/09/21 11:32:31;;;;;;;1.38;0.85;;;17.10;84.20;;;;;;5049045;28;20125;-69
2022/09/21 11:35:24;;;;;;;2.58;0.57;;;17.10;85.50;;;;;;5047951;28;20517;-68
2022/09/21 11:38:17;;;;;;;1.15;0.63;;;17.30;81.60;;;;;;5048263;28;20052;-68
2022/09/21 11:41:01;;;;;;;1.05;0.70;;;17.10;81.20;;;;;;5051884;28;20472;-68
2022/09/21 11:43:34;;;;;;;1.23;0.60;;;17.30;82.50;;;;;;5053696;28;20575;-68
2022/09/21 11:46:18;;;;;;;1.40;0.65;;;17.30;84.30;;;;;;5052102;28;20115;-68
2022/09/21 11:49:10;;;;;;;3.05;0.73;;;17.40;85.80;;;;;;5067264;28;20045;-68
2022/09/21 11:51:56;;;;;;;1.65;0.65;;;17.20;82.00;;;;;;5050430;28;20045;-66
2022/09/21 11:54:56;;;;;;;7.22;0.63;;;17.30;85.00;;;;;;5051079;28;20036;-66
2022/09/21 11:57:32;;;;;;;0.98;0.70;;;17.40;81.20;;;;;;5051018;28;20063;-67
2022/09/21 12:00:19;;;;;;;2.35;0.93;;;17.40;82.40;;;;;;5049734;28;20040;-66
2022/09/21 12:03:22;;;;;;;3.05;0.88;;;17.50;86.50;;;;;;5051478;28;20063;-69
2022/09/21 12:06:11;;;;;;;1.80;0.85;;;17.50;86.00;;;;;;5048996;28;20029;-68
2022/09/21 12:08:55;;;;;;;2.70;0.60;;;;;;;;;;5035688;28;20049;-67
2022/09/21 12:12:10;;;;;;;0.80;0.55;;;18.10;82.30;;;;;;5033364;28;20053;-67
2022/09/21 12:15:03;;;;;;;1.10;0.60;;;17.90;85.30;;;;;;5036338;28;20102;-66
2022/09/21 12:17:59;;;;;;;1.70;0.85;;;17.30;85.90;;;;;;5053559;28;20044;-67
2022/09/21 12:20:36;;;;;;;4.28;1.02;;;17.70;85.80;;;;;;5054001;28;20052;-67
2022/09/21 12:23:09;;;;;;;3.30;0.98;;;17.60;85.50;;;;;;5063759;28;20064;-68
2022/09/21 12:25:41;;;;;;;3.47;0.75;;;17.70;84.50;;;;;;5061045;28;20032;-67
2022/09/21 12:28:24;;;;;;;7.38;1.63;;;17.70;85.20;;;;;;5055913;28;20052;-68
2022/09/21 12:30:59;;;;;;;2.65;0.82;;;17.60;82.80;;;;;;5054359;28;20075;-67
2022/09/21 12:34:05;;;;;;;1.92;0.70;;;17.60;85.20;;;;;;5054906;28;20127;-67
2022/09/21 12:36:38;;;;;;;1.20;0.63;;;17.50;84.10;;;;;;5052408;28;20041;-67
2022/09/21 12:39:24;;;;;;;0.77;0.52;;;17.90;83.50;;;;;;5050925;28;20037;-66
2022/09/21 12:42:06;;;;;;;2.30;0.80;;;18.20;84.20;;;;;;5050722;28;20520;-68
2022/09/21 12:44:53;;;;;;;0.63;0.43;;;17.90;83.80;;;;;;5051489;28;20041;-68
2022/09/21 12:47:28;;;;;;;1.45;1.00;;;17.40;82.50;;;;;;5052033;28;20048;-67
2022/09/21 12:50:01;;;;;;;1.15;0.57;;;17.60;80.70;;;;;;5050549;28;20412;-66
2022/09/21 12:52:27;;;;;;;3.20;0.88;;;17.50;79.50;;;;;;5051151;28;20041;-66
2022/09/21 12:55:15;;;;;;;2.25;0.70;;;17.80;80.30;;;;;;5049469;28;20071;-67
2022/09/21 12:57:48;;;;;;;0.82;0.68;;;17.90;80.20;;;;;;5040447;28;20041;-67
2022/09/21 13:00:21;;;;;;;1.25;0.70;;;17.80;82.30;;;;;;5046171;28;20465;-65
2022/09/21 13:03:07;;;;;;;2.53;0.88;;;17.70;80.70;;;;;;5047439;28;20128;-64
2022/09/21 13:05:40;;;;;;;0.80;0.60;;;17.90;81.40;;;;;;5052718;28;21466;-64
2022/09/21 13:08:16;;;;;;;2.08;0.75;;;17.70;81.00;;;;;;5049918;28;20055;-68
2022/09/21 13:10:56;;;;;;;2.88;0.90;;;17.90;80.10;;;;;;5049270;28;20037;-68
2022/09/21 13:13:24;;;;;;;1.88;0.93;;;18.10;81.10;;;;;;5049993;28;20040;-67
2022/09/21 13:15:51;;;;;;;2.35;0.77;;;17.70;80.70;;;;;;5048929;28;20037;-67
2022/09/21 13:18:25;;;;;;;1.55;0.70;;;17.80;80.50;;;;;;5031308;28;20485;-64
2022/09/21 13:20:53;;;;;;;1.95;0.85;;;17.70;79.60;;;;;;5032816;28;20033;-64
2022/09/21 13:23:32;;;;;;;5.75;1.10;;;17.90;80.80;;;;;;5032029;28;20381;-67
2022/09/21 13:26:04;;;;;;;1.08;0.90;;;17.80;80.40;;;;;;5032171;28;20034;-63